sensor_id;sensor_type;location;lat;lon;timestamp;P1;durP1;ratioP1;P2;durP2;ratioP2
70132;SDS011;57495;49.922;7.966;2022-09-12T00:00:31;12.18;;;7.18;;
70132;SDS011;57495;49.922;7.966;2022-09-12T00:02:33;11.77;;;6.80;;
70132;SDS011;57495;49.922;7.966;2022-09-12T00:04:34;9.85;;;6.03;;
70132;SDS011;57495;49.922;7.966;2022-09-12T00:06:36;10.40;;;6.83;;
70132;SDS011;57495;49.922;7.966;2022-09-12T00:08:38;10.10;;;6.38;;
70132;SDS011;57495;49.922;7.966;2022-09-12T00:10:40;11.23;;;6.50;;
70132;SDS011;57495;49.922;7.966;2022-09-12T00:12:42;11.05;;;6.47;;
70132;SDS011;57495;49.922;7.966;2022-09-12T00:14:45;10.45;;;6.30;;
70132;SDS011;57495;49.922;7.966;2022-09-12T00:16:46;12.07;;;6.90;;
70132;SDS011;57495;49.922;7.966;2022-09-12T00:18:48;10.45;;;6.57;;
70132;SDS011;57495;49.922;7.966;2022-09-12T00:20:50;13.35;;;6.97;;
70132;SDS011;57495;49.922;7.966;2022-09-12T00:22:51;12.50;;;6.68;;
70132;SDS011;57495;49.922;7.966;2022-09-12T00:24:53;10.38;;;6.65;;
70132;SDS011;57495;49.922;7.966;2022-09-12T00:26:54;9.63;;;6.60;;
70132;SDS011;57495;49.922;7.966;2022-09-12T00:28:55;16.88;;;7.60;;
70132;SDS011;57495;49.922;7.966;2022-09-12T00:30:58;10.80;;;6.97;;
70132;SDS011;57495;49.922;7.966;2022-09-12T00:33:00;11.23;;;6.47;;
70132;SDS011;57495;49.922;7.966;2022-09-12T00:35:01;12.05;;;6.72;;
70132;SDS011;57495;49.922;7.966;2022-09-12T00:37:03;12.10;;;6.17;;
70132;SDS011;57495;49.922;7.966;2022-09-12T00:39:05;11.30;;;7.05;;
70132;SDS011;57495;49.922;7.966;2022-09-12T00:41:09;11.18;;;7.43;;
70132;SDS011;57495;49.922;7.966;2022-09-12T00:45:39;13.63;;;7.97;;
70132;SDS011;57495;49.922;7.966;2022-09-12T00:47:42;11.20;;;6.77;;
70132;SDS011;57495;49.922;7.966;2022-09-12T00:49:45;12.75;;;7.43;;
70132;SDS011;57495;49.922;7.966;2022-09-12T00:51:51;11.73;;;6.60;;
70132;SDS011;57495;49.922;7.966;2022-09-12T00:53:55;11.10;;;6.30;;
70132;SDS011;57495;49.922;7.966;2022-09-12T00:55:59;11.30;;;7.13;;
70132;SDS011;57495;49.922;7.966;2022-09-12T00:58:02;12.97;;;7.50;;
70132;SDS011;57495;49.922;7.966;2022-09-12T01:00:11;11.52;;;6.90;;
70132;SDS011;57495;49.922;7.966;2022-09-12T01:02:15;13.38;;;7.50;;
70132;SDS011;57495;49.922;7.966;2022-09-12T01:04:18;10.98;;;6.97;;
70132;SDS011;57495;49.922;7.966;2022-09-12T01:06:22;12.93;;;7.82;;
70132;SDS011;57495;49.922;7.966;2022-09-12T01:08:27;12.00;;;7.60;;
70132;SDS011;57495;49.922;7.966;2022-09-12T01:10:29;11.45;;;7.47;;
70132;SDS011;57495;49.922;7.966;2022-09-12T01:12:34;13.98;;;7.05;;
70132;SDS011;57495;49.922;7.966;2022-09-12T01:14:39;9.10;;;6.00;;
70132;SDS011;57495;49.922;7.966;2022-09-12T01:16:41;10.88;;;7.13;;
70132;SDS011;57495;49.922;7.966;2022-09-12T01:18:48;9.30;;;6.60;;
70132;SDS011;57495;49.922;7.966;2022-09-12T01:21:03;10.05;;;6.30;;
70132;SDS011;57495;49.922;7.966;2022-09-12T01:23:21;10.30;;;6.28;;
70132;SDS011;57495;49.922;7.966;2022-09-12T01:25:41;12.57;;;6.47;;
70132;SDS011;57495;49.922;7.966;2022-09-12T01:28:01;13.13;;;7.18;;
70132;SDS011;57495;49.922;7.966;2022-09-12T01:30:31;11.33;;;7.50;;
70132;SDS011;57495;49.922;7.966;2022-09-12T01:32:47;12.82;;;6.40;;
70132;SDS011;57495;49.922;7.966;2022-09-12T01:34:57;10.65;;;6.35;;
70132;SDS011;57495;49.922;7.966;2022-09-12T01:37:09;8.98;;;5.65;;
70132;SDS011;57495;49.922;7.966;2022-09-12T01:39:20;10.57;;;6.03;;
70132;SDS011;57495;49.922;7.966;2022-09-12T01:41:29;10.20;;;6.43;;
70132;SDS011;57495;49.922;7.966;2022-09-12T01:43:43;12.05;;;6.00;;
70132;SDS011;57495;49.922;7.966;2022-09-12T01:45:52;10.82;;;6.63;;
70132;SDS011;57495;49.922;7.966;2022-09-12T01:47:59;14.32;;;6.78;;
70132;SDS011;57495;49.922;7.966;2022-09-12T01:50:07;12.18;;;6.95;;
70132;SDS011;57495;49.922;7.966;2022-09-12T01:52:14;10.83;;;7.00;;
70132;SDS011;57495;49.922;7.966;2022-09-12T01:54:22;11.30;;;6.97;;
70132;SDS011;57495;49.922;7.966;2022-09-12T01:56:29;11.13;;;7.13;;
70132;SDS011;57495;49.922;7.966;2022-09-12T01:58:36;11.65;;;7.63;;
70132;SDS011;57495;49.922;7.966;2022-09-12T02:00:43;9.63;;;5.72;;
70132;SDS011;57495;49.922;7.966;2022-09-12T02:02:50;14.77;;;6.63;;
70132;SDS011;57495;49.922;7.966;2022-09-12T02:04:54;11.38;;;6.80;;
70132;SDS011;57495;49.922;7.966;2022-09-12T02:07:01;14.07;;;8.20;;
70132;SDS011;57495;49.922;7.966;2022-09-12T02:09:10;14.00;;;8.25;;
70132;SDS011;57495;49.922;7.966;2022-09-12T02:11:17;13.10;;;8.15;;
70132;SDS011;57495;49.922;7.966;2022-09-12T02:13:20;14.63;;;7.73;;
70132;SDS011;57495;49.922;7.966;2022-09-12T02:15:26;12.00;;;7.30;;
70132;SDS011;57495;49.922;7.966;2022-09-12T02:17:33;11.65;;;7.18;;
70132;SDS011;57495;49.922;7.966;2022-09-12T02:19:41;11.25;;;7.15;;
70132;SDS011;57495;49.922;7.966;2022-09-12T02:21:45;10.18;;;6.43;;
70132;SDS011;57495;49.922;7.966;2022-09-12T02:23:53;9.13;;;6.03;;
70132;SDS011;57495;49.922;7.966;2022-09-12T02:25:59;11.60;;;6.07;;
70132;SDS011;57495;49.922;7.966;2022-09-12T02:28:03;9.98;;;5.95;;
70132;SDS011;57495;49.922;7.966;2022-09-12T02:30:09;10.52;;;5.78;;
70132;SDS011;57495;49.922;7.966;2022-09-12T02:32:15;10.00;;;6.05;;
70132;SDS011;57495;49.922;7.966;2022-09-12T02:34:31;10.60;;;5.67;;
70132;SDS011;57495;49.922;7.966;2022-09-12T02:36:45;9.57;;;5.45;;
70132;SDS011;57495;49.922;7.966;2022-09-12T02:38:51;9.32;;;5.43;;
70132;SDS011;57495;49.922;7.966;2022-09-12T02:40:54;10.40;;;5.65;;
70132;SDS011;57495;49.922;7.966;2022-09-12T02:42:56;9.10;;;5.70;;
70132;SDS011;57495;49.922;7.966;2022-09-12T02:44:58;9.27;;;6.00;;
70132;SDS011;57495;49.922;7.966;2022-09-12T02:47:00;11.88;;;5.85;;
70132;SDS011;57495;49.922;7.966;2022-09-12T02:49:05;9.73;;;5.57;;
70132;SDS011;57495;49.922;7.966;2022-09-12T02:51:07;9.20;;;5.20;;
70132;SDS011;57495;49.922;7.966;2022-09-12T02:53:10;10.52;;;5.63;;
70132;SDS011;57495;49.922;7.966;2022-09-12T02:55:12;7.97;;;4.87;;
70132;SDS011;57495;49.922;7.966;2022-09-12T02:57:15;9.48;;;5.15;;
70132;SDS011;57495;49.922;7.966;2022-09-12T02:59:17;8.40;;;5.10;;
70132;SDS011;57495;49.922;7.966;2022-09-12T03:01:25;8.35;;;5.07;;
70132;SDS011;57495;49.922;7.966;2022-09-12T03:03:37;9.40;;;5.18;;
70132;SDS011;57495;49.922;7.966;2022-09-12T03:05:54;12.57;;;5.53;;
70132;SDS011;57495;49.922;7.966;2022-09-12T03:08:09;9.57;;;5.47;;
70132;SDS011;57495;49.922;7.966;2022-09-12T03:10:23;10.20;;;5.75;;
70132;SDS011;57495;49.922;7.966;2022-09-12T03:12:37;10.27;;;5.68;;
70132;SDS011;57495;49.922;7.966;2022-09-12T03:14:50;9.02;;;5.85;;
70132;SDS011;57495;49.922;7.966;2022-09-12T03:17:05;10.67;;;5.83;;
70132;SDS011;57495;49.922;7.966;2022-09-12T03:19:13;10.55;;;6.72;;
70132;SDS011;57495;49.922;7.966;2022-09-12T03:21:21;12.48;;;6.03;;
70132;SDS011;57495;49.922;7.966;2022-09-12T03:23:29;10.88;;;5.90;;
70132;SDS011;57495;49.922;7.966;2022-09-12T03:25:37;12.43;;;6.88;;
70132;SDS011;57495;49.922;7.966;2022-09-12T03:27:45;10.87;;;6.80;;
70132;SDS011;57495;49.922;7.966;2022-09-12T03:29:53;9.60;;;5.40;;
70132;SDS011;57495;49.922;7.966;2022-09-12T03:31:57;14.20;;;6.35;;
70132;SDS011;57495;49.922;7.966;2022-09-12T03:33:59;10.52;;;5.88;;
70132;SDS011;57495;49.922;7.966;2022-09-12T03:36:00;9.63;;;5.03;;
70132;SDS011;57495;49.922;7.966;2022-09-12T03:38:02;9.47;;;5.53;;
70132;SDS011;57495;49.922;7.966;2022-09-12T03:40:05;10.02;;;5.70;;
70132;SDS011;57495;49.922;7.966;2022-09-12T03:42:08;8.52;;;5.43;;
70132;SDS011;57495;49.922;7.966;2022-09-12T03:44:10;12.45;;;5.70;;
70132;SDS011;57495;49.922;7.966;2022-09-12T03:46:11;9.77;;;5.45;;
70132;SDS011;57495;49.922;7.966;2022-09-12T03:48:13;10.13;;;5.77;;
70132;SDS011;57495;49.922;7.966;2022-09-12T03:50:15;9.90;;;5.88;;
70132;SDS011;57495;49.922;7.966;2022-09-12T03:52:17;10.93;;;5.78;;
70132;SDS011;57495;49.922;7.966;2022-09-12T03:54:18;9.15;;;5.15;;
70132;SDS011;57495;49.922;7.966;2022-09-12T03:56:21;9.88;;;6.13;;
70132;SDS011;57495;49.922;7.966;2022-09-12T03:58:22;11.57;;;6.17;;
70132;SDS011;57495;49.922;7.966;2022-09-12T04:00:24;10.20;;;5.97;;
70132;SDS011;57495;49.922;7.966;2022-09-12T04:02:26;9.10;;;5.35;;
70132;SDS011;57495;49.922;7.966;2022-09-12T04:04:27;11.50;;;5.00;;
70132;SDS011;57495;49.922;7.966;2022-09-12T04:06:29;8.15;;;4.50;;
70132;SDS011;57495;49.922;7.966;2022-09-12T04:08:31;10.47;;;6.23;;
70132;SDS011;57495;49.922;7.966;2022-09-12T04:10:32;10.05;;;6.28;;
70132;SDS011;57495;49.922;7.966;2022-09-12T04:12:35;9.80;;;5.57;;
70132;SDS011;57495;49.922;7.966;2022-09-12T04:14:38;10.38;;;6.63;;
70132;SDS011;57495;49.922;7.966;2022-09-12T04:16:40;13.20;;;6.70;;
70132;SDS011;57495;49.922;7.966;2022-09-12T04:18:41;13.20;;;6.57;;
70132;SDS011;57495;49.922;7.966;2022-09-12T04:20:43;11.77;;;6.80;;
70132;SDS011;57495;49.922;7.966;2022-09-12T04:22:44;13.43;;;6.75;;
70132;SDS011;57495;49.922;7.966;2022-09-12T04:24:45;10.07;;;6.35;;
70132;SDS011;57495;49.922;7.966;2022-09-12T04:26:47;10.82;;;6.35;;
70132;SDS011;57495;49.922;7.966;2022-09-12T04:28:51;11.87;;;5.83;;
70132;SDS011;57495;49.922;7.966;2022-09-12T04:30:55;9.50;;;5.53;;
70132;SDS011;57495;49.922;7.966;2022-09-12T04:32:56;10.90;;;5.85;;
70132;SDS011;57495;49.922;7.966;2022-09-12T04:34:58;8.20;;;5.18;;
70132;SDS011;57495;49.922;7.966;2022-09-12T04:36:59;8.30;;;5.13;;
70132;SDS011;57495;49.922;7.966;2022-09-12T04:39:01;8.60;;;4.70;;
70132;SDS011;57495;49.922;7.966;2022-09-12T04:41:11;10.57;;;4.95;;
70132;SDS011;57495;49.922;7.966;2022-09-12T04:43:13;9.15;;;5.00;;
70132;SDS011;57495;49.922;7.966;2022-09-12T04:45:16;9.00;;;5.35;;
70132;SDS011;57495;49.922;7.966;2022-09-12T04:47:18;11.25;;;5.53;;
70132;SDS011;57495;49.922;7.966;2022-09-12T04:49:19;10.27;;;5.73;;
70132;SDS011;57495;49.922;7.966;2022-09-12T04:51:22;9.35;;;5.65;;
70132;SDS011;57495;49.922;7.966;2022-09-12T04:53:26;10.55;;;5.90;;
70132;SDS011;57495;49.922;7.966;2022-09-12T04:55:28;10.88;;;6.15;;
70132;SDS011;57495;49.922;7.966;2022-09-12T04:57:29;13.48;;;6.90;;
70132;SDS011;57495;49.922;7.966;2022-09-12T04:59:30;12.00;;;6.70;;
70132;SDS011;57495;49.922;7.966;2022-09-12T05:01:33;10.43;;;5.70;;
70132;SDS011;57495;49.922;7.966;2022-09-12T05:03:36;9.50;;;5.55;;
70132;SDS011;57495;49.922;7.966;2022-09-12T05:05:38;9.52;;;5.85;;
70132;SDS011;57495;49.922;7.966;2022-09-12T05:07:39;12.82;;;6.90;;
70132;SDS011;57495;49.922;7.966;2022-09-12T05:09:41;12.13;;;7.00;;
70132;SDS011;57495;49.922;7.966;2022-09-12T05:11:43;13.95;;;6.22;;
70132;SDS011;57495;49.922;7.966;2022-09-12T05:13:45;11.38;;;5.75;;
70132;SDS011;57495;49.922;7.966;2022-09-12T05:15:52;10.52;;;6.07;;
70132;SDS011;57495;49.922;7.966;2022-09-12T05:17:56;12.27;;;6.60;;
70132;SDS011;57495;49.922;7.966;2022-09-12T05:19:57;11.20;;;6.90;;
70132;SDS011;57495;49.922;7.966;2022-09-12T05:21:59;10.80;;;5.90;;
70132;SDS011;57495;49.922;7.966;2022-09-12T05:24:01;11.98;;;6.47;;
70132;SDS011;57495;49.922;7.966;2022-09-12T05:26:06;13.00;;;6.55;;
70132;SDS011;57495;49.922;7.966;2022-09-12T05:28:08;14.02;;;7.20;;
70132;SDS011;57495;49.922;7.966;2022-09-12T05:30:10;10.70;;;6.03;;
70132;SDS011;57495;49.922;7.966;2022-09-12T05:32:12;11.57;;;5.90;;
70132;SDS011;57495;49.922;7.966;2022-09-12T05:34:14;11.43;;;6.70;;
70132;SDS011;57495;49.922;7.966;2022-09-12T05:36:17;11.20;;;5.90;;
70132;SDS011;57495;49.922;7.966;2022-09-12T05:38:20;11.90;;;6.30;;
70132;SDS011;57495;49.922;7.966;2022-09-12T05:40:23;10.70;;;5.83;;
70132;SDS011;57495;49.922;7.966;2022-09-12T05:42:24;49.92;;;31.60;;
70132;SDS011;57495;49.922;7.966;2022-09-12T05:44:26;16.85;;;7.93;;
70132;SDS011;57495;49.922;7.966;2022-09-12T05:46:28;11.43;;;6.30;;
70132;SDS011;57495;49.922;7.966;2022-09-12T05:48:31;9.80;;;5.57;;
70132;SDS011;57495;49.922;7.966;2022-09-12T05:50:33;9.07;;;5.77;;
70132;SDS011;57495;49.922;7.966;2022-09-12T05:52:35;9.52;;;5.55;;
70132;SDS011;57495;49.922;7.966;2022-09-12T05:54:37;8.48;;;5.38;;
70132;SDS011;57495;49.922;7.966;2022-09-12T05:56:39;10.45;;;5.30;;
70132;SDS011;57495;49.922;7.966;2022-09-12T05:58:42;10.85;;;5.90;;
70132;SDS011;57495;49.922;7.966;2022-09-12T06:00:45;8.37;;;5.07;;
70132;SDS011;57495;49.922;7.966;2022-09-12T06:02:50;10.65;;;6.28;;
70132;SDS011;57495;49.922;7.966;2022-09-12T06:04:52;10.95;;;5.65;;
70132;SDS011;57495;49.922;7.966;2022-09-12T06:06:54;10.52;;;6.30;;
70132;SDS011;57495;49.922;7.966;2022-09-12T06:08:57;9.45;;;5.85;;
70132;SDS011;57495;49.922;7.966;2022-09-12T06:11:01;11.13;;;6.07;;
70132;SDS011;57495;49.922;7.966;2022-09-12T06:13:04;11.48;;;7.07;;
70132;SDS011;57495;49.922;7.966;2022-09-12T06:15:06;10.35;;;5.85;;
70132;SDS011;57495;49.922;7.966;2022-09-12T06:17:08;9.65;;;5.60;;
70132;SDS011;57495;49.922;7.966;2022-09-12T06:19:12;12.07;;;5.72;;
70132;SDS011;57495;49.922;7.966;2022-09-12T06:21:16;8.47;;;5.70;;
70132;SDS011;57495;49.922;7.966;2022-09-12T06:23:19;10.13;;;5.47;;
70132;SDS011;57495;49.922;7.966;2022-09-12T06:25:20;9.10;;;5.50;;
70132;SDS011;57495;49.922;7.966;2022-09-12T06:27:22;12.05;;;6.57;;
70132;SDS011;57495;49.922;7.966;2022-09-12T06:29:23;11.23;;;6.13;;
70132;SDS011;57495;49.922;7.966;2022-09-12T06:31:26;9.63;;;5.83;;
70132;SDS011;57495;49.922;7.966;2022-09-12T06:33:29;9.98;;;5.97;;
70132;SDS011;57495;49.922;7.966;2022-09-12T06:35:34;12.00;;;6.20;;
70132;SDS011;57495;49.922;7.966;2022-09-12T06:37:35;10.82;;;6.57;;
70132;SDS011;57495;49.922;7.966;2022-09-12T06:39:38;10.73;;;6.88;;
70132;SDS011;57495;49.922;7.966;2022-09-12T06:41:40;11.27;;;6.57;;
70132;SDS011;57495;49.922;7.966;2022-09-12T06:43:42;10.60;;;6.90;;
70132;SDS011;57495;49.922;7.966;2022-09-12T06:45:47;10.23;;;6.65;;
70132;SDS011;57495;49.922;7.966;2022-09-12T06:47:49;12.05;;;6.80;;
70132;SDS011;57495;49.922;7.966;2022-09-12T06:49:50;12.65;;;7.88;;
70132;SDS011;57495;49.922;7.966;2022-09-12T06:51:52;13.97;;;8.23;;
70132;SDS011;57495;49.922;7.966;2022-09-12T06:53:53;16.90;;;8.75;;
70132;SDS011;57495;49.922;7.966;2022-09-12T06:55:57;14.80;;;8.48;;
70132;SDS011;57495;49.922;7.966;2022-09-12T06:58:00;17.88;;;8.85;;
70132;SDS011;57495;49.922;7.966;2022-09-12T07:00:01;14.85;;;8.38;;
70132;SDS011;57495;49.922;7.966;2022-09-12T07:02:04;14.67;;;8.30;;
70132;SDS011;57495;49.922;7.966;2022-09-12T07:04:06;17.92;;;9.15;;
70132;SDS011;57495;49.922;7.966;2022-09-12T07:06:08;20.83;;;9.77;;
70132;SDS011;57495;49.922;7.966;2022-09-12T07:08:10;18.15;;;8.82;;
70132;SDS011;57495;49.922;7.966;2022-09-12T07:10:12;18.60;;;9.23;;
70132;SDS011;57495;49.922;7.966;2022-09-12T07:12:15;17.43;;;9.43;;
70132;SDS011;57495;49.922;7.966;2022-09-12T07:14:16;16.00;;;8.73;;
70132;SDS011;57495;49.922;7.966;2022-09-12T07:16:18;17.77;;;10.23;;
70132;SDS011;57495;49.922;7.966;2022-09-12T07:18:20;18.48;;;10.10;;
70132;SDS011;57495;49.922;7.966;2022-09-12T07:20:22;19.90;;;10.32;;
70132;SDS011;57495;49.922;7.966;2022-09-12T07:22:24;18.10;;;10.00;;
70132;SDS011;57495;49.922;7.966;2022-09-12T07:24:25;18.55;;;10.95;;
70132;SDS011;57495;49.922;7.966;2022-09-12T07:26:27;19.83;;;11.07;;
70132;SDS011;57495;49.922;7.966;2022-09-12T07:28:32;18.98;;;10.73;;
70132;SDS011;57495;49.922;7.966;2022-09-12T07:30:35;17.33;;;10.48;;
70132;SDS011;57495;49.922;7.966;2022-09-12T07:32:37;19.63;;;11.33;;
70132;SDS011;57495;49.922;7.966;2022-09-12T07:34:38;18.77;;;10.85;;
70132;SDS011;57495;49.922;7.966;2022-09-12T07:36:39;18.70;;;10.45;;
70132;SDS011;57495;49.922;7.966;2022-09-12T07:38:41;17.50;;;11.00;;
70132;SDS011;57495;49.922;7.966;2022-09-12T07:40:43;18.40;;;11.35;;
70132;SDS011;57495;49.922;7.966;2022-09-12T07:42:45;19.63;;;11.37;;
70132;SDS011;57495;49.922;7.966;2022-09-12T07:44:48;18.15;;;10.88;;
70132;SDS011;57495;49.922;7.966;2022-09-12T07:46:51;17.95;;;11.13;;
70132;SDS011;57495;49.922;7.966;2022-09-12T07:48:53;19.17;;;11.43;;
70132;SDS011;57495;49.922;7.966;2022-09-12T07:50:56;21.52;;;13.02;;
70132;SDS011;57495;49.922;7.966;2022-09-12T07:52:58;18.17;;;10.90;;
70132;SDS011;57495;49.922;7.966;2022-09-12T07:55:02;17.83;;;11.77;;
70132;SDS011;57495;49.922;7.966;2022-09-12T07:57:04;19.90;;;10.93;;
70132;SDS011;57495;49.922;7.966;2022-09-12T07:59:05;19.75;;;11.77;;
70132;SDS011;57495;49.922;7.966;2022-09-12T08:01:09;16.75;;;10.40;;
70132;SDS011;57495;49.922;7.966;2022-09-12T08:03:12;18.60;;;11.93;;
70132;SDS011;57495;49.922;7.966;2022-09-12T08:05:13;17.15;;;10.38;;
70132;SDS011;57495;49.922;7.966;2022-09-12T08:07:15;19.58;;;11.05;;
70132;SDS011;57495;49.922;7.966;2022-09-12T08:09:18;16.63;;;10.82;;
70132;SDS011;57495;49.922;7.966;2022-09-12T08:11:20;16.90;;;10.32;;
70132;SDS011;57495;49.922;7.966;2022-09-12T08:13:22;19.40;;;11.10;;
70132;SDS011;57495;49.922;7.966;2022-09-12T08:15:24;16.25;;;10.43;;
70132;SDS011;57495;49.922;7.966;2022-09-12T08:17:26;17.50;;;10.93;;
70132;SDS011;57495;49.922;7.966;2022-09-12T08:19:28;16.50;;;10.95;;
70132;SDS011;57495;49.922;7.966;2022-09-12T08:21:31;18.58;;;11.05;;
70132;SDS011;57495;49.922;7.966;2022-09-12T08:23:33;18.43;;;11.07;;
70132;SDS011;57495;49.922;7.966;2022-09-12T08:25:34;18.13;;;10.75;;
70132;SDS011;57495;49.922;7.966;2022-09-12T08:27:36;18.98;;;11.32;;
70132;SDS011;57495;49.922;7.966;2022-09-12T08:29:38;17.45;;;10.70;;
70132;SDS011;57495;49.922;7.966;2022-09-12T08:31:39;16.85;;;10.65;;
70132;SDS011;57495;49.922;7.966;2022-09-12T08:33:42;17.43;;;11.27;;
70132;SDS011;57495;49.922;7.966;2022-09-12T08:35:44;17.08;;;10.68;;
70132;SDS011;57495;49.922;7.966;2022-09-12T08:37:46;19.15;;;11.50;;
70132;SDS011;57495;49.922;7.966;2022-09-12T08:39:48;18.15;;;11.32;;
70132;SDS011;57495;49.922;7.966;2022-09-12T08:41:55;17.85;;;11.55;;
70132;SDS011;57495;49.922;7.966;2022-09-12T08:44:04;20.30;;;11.70;;
70132;SDS011;57495;49.922;7.966;2022-09-12T08:46:17;15.65;;;10.27;;
70132;SDS011;57495;49.922;7.966;2022-09-12T08:48:22;18.58;;;11.30;;
70132;SDS011;57495;49.922;7.966;2022-09-12T08:50:25;22.23;;;10.63;;
70132;SDS011;57495;49.922;7.966;2022-09-12T08:52:28;16.75;;;10.00;;
70132;SDS011;57495;49.922;7.966;2022-09-12T08:54:34;18.30;;;10.83;;
70132;SDS011;57495;49.922;7.966;2022-09-12T08:56:35;21.77;;;10.85;;
70132;SDS011;57495;49.922;7.966;2022-09-12T08:58:39;16.50;;;11.07;;
70132;SDS011;57495;49.922;7.966;2022-09-12T09:00:46;16.00;;;10.57;;
70132;SDS011;57495;49.922;7.966;2022-09-12T09:03:08;17.08;;;11.10;;
70132;SDS011;57495;49.922;7.966;2022-09-12T09:05:36;16.13;;;9.83;;
70132;SDS011;57495;49.922;7.966;2022-09-12T09:07:54;18.52;;;11.30;;
70132;SDS011;57495;49.922;7.966;2022-09-12T09:10:18;19.73;;;10.70;;
70132;SDS011;57495;49.922;7.966;2022-09-12T09:12:28;16.40;;;10.70;;
70132;SDS011;57495;49.922;7.966;2022-09-12T09:17:10;16.67;;;10.43;;
70132;SDS011;57495;49.922;7.966;2022-09-12T09:19:16;15.98;;;9.50;;
70132;SDS011;57495;49.922;7.966;2022-09-12T09:21:22;16.30;;;10.57;;
70132;SDS011;57495;49.922;7.966;2022-09-12T09:23:30;15.50;;;10.48;;
70132;SDS011;57495;49.922;7.966;2022-09-12T09:25:37;19.42;;;9.95;;
70132;SDS011;57495;49.922;7.966;2022-09-12T09:27:45;17.83;;;11.37;;
70132;SDS011;57495;49.922;7.966;2022-09-12T09:29:52;14.85;;;10.00;;
70132;SDS011;57495;49.922;7.966;2022-09-12T09:31:57;18.48;;;13.43;;
70132;SDS011;57495;49.922;7.966;2022-09-12T09:34:04;22.35;;;15.27;;
70132;SDS011;57495;49.922;7.966;2022-09-12T09:36:14;17.30;;;11.30;;
70132;SDS011;57495;49.922;7.966;2022-09-12T09:38:23;16.70;;;11.43;;
70132;SDS011;57495;49.922;7.966;2022-09-12T09:40:25;16.63;;;11.10;;
70132;SDS011;57495;49.922;7.966;2022-09-12T09:42:38;17.88;;;10.77;;
70132;SDS011;57495;49.922;7.966;2022-09-12T09:44:44;16.13;;;11.45;;
70132;SDS011;57495;49.922;7.966;2022-09-12T09:46:48;14.85;;;10.25;;
70132;SDS011;57495;49.922;7.966;2022-09-12T09:48:54;15.43;;;10.70;;
70132;SDS011;57495;49.922;7.966;2022-09-12T09:50:59;16.05;;;10.15;;
70132;SDS011;57495;49.922;7.966;2022-09-12T09:53:02;18.55;;;9.95;;
70132;SDS011;57495;49.922;7.966;2022-09-12T09:55:09;14.80;;;9.93;;
70132;SDS011;57495;49.922;7.966;2022-09-12T09:59:44;14.83;;;9.57;;
70132;SDS011;57495;49.922;7.966;2022-09-12T10:01:46;18.02;;;10.77;;
70132;SDS011;57495;49.922;7.966;2022-09-12T10:03:49;17.65;;;10.05;;
70132;SDS011;57495;49.922;7.966;2022-09-12T10:05:52;16.55;;;9.50;;
70132;SDS011;57495;49.922;7.966;2022-09-12T10:07:56;13.57;;;9.65;;
70132;SDS011;57495;49.922;7.966;2022-09-12T10:10:03;15.30;;;9.03;;
70132;SDS011;57495;49.922;7.966;2022-09-12T10:12:20;15.15;;;8.90;;
70132;SDS011;57495;49.922;7.966;2022-09-12T10:14:31;12.07;;;7.97;;
70132;SDS011;57495;49.922;7.966;2022-09-12T10:16:47;13.13;;;8.20;;
70132;SDS011;57495;49.922;7.966;2022-09-12T10:18:51;13.77;;;9.63;;
70132;SDS011;57495;49.922;7.966;2022-09-12T10:20:54;11.67;;;8.50;;
70132;SDS011;57495;49.922;7.966;2022-09-12T10:22:57;123.47;;;65.75;;
70132;SDS011;57495;49.922;7.966;2022-09-12T10:25:00;146.13;;;75.22;;
70132;SDS011;57495;49.922;7.966;2022-09-12T10:27:07;27.92;;;15.32;;
70132;SDS011;57495;49.922;7.966;2022-09-12T10:29:15;10.05;;;7.25;;
70132;SDS011;57495;49.922;7.966;2022-09-12T10:31:22;10.43;;;6.60;;
70132;SDS011;57495;49.922;7.966;2022-09-12T10:33:28;9.70;;;6.25;;
70132;SDS011;57495;49.922;7.966;2022-09-12T10:35:30;12.20;;;8.27;;
70132;SDS011;57495;49.922;7.966;2022-09-12T10:37:49;10.88;;;7.35;;
70132;SDS011;57495;49.922;7.966;2022-09-12T10:39:55;10.20;;;6.53;;
70132;SDS011;57495;49.922;7.966;2022-09-12T10:41:57;9.33;;;6.83;;
70132;SDS011;57495;49.922;7.966;2022-09-12T10:44:04;11.52;;;6.80;;
70132;SDS011;57495;49.922;7.966;2022-09-12T10:46:25;12.05;;;7.43;;
70132;SDS011;57495;49.922;7.966;2022-09-12T10:48:30;10.98;;;7.20;;
70132;SDS011;57495;49.922;7.966;2022-09-12T10:50:34;9.00;;;5.65;;
70132;SDS011;57495;49.922;7.966;2022-09-12T10:52:39;10.40;;;6.37;;
70132;SDS011;57495;49.922;7.966;2022-09-12T10:54:41;9.13;;;5.90;;
70132;SDS011;57495;49.922;7.966;2022-09-12T10:56:45;9.02;;;6.07;;
70132;SDS011;57495;49.922;7.966;2022-09-12T10:59:08;7.55;;;5.07;;
70132;SDS011;57495;49.922;7.966;2022-09-12T11:01:24;8.27;;;5.78;;
70132;SDS011;57495;49.922;7.966;2022-09-12T11:03:39;8.23;;;5.57;;
70132;SDS011;57495;49.922;7.966;2022-09-12T11:05:54;8.95;;;5.60;;
70132;SDS011;57495;49.922;7.966;2022-09-12T11:07:59;10.00;;;5.57;;
70132;SDS011;57495;49.922;7.966;2022-09-12T11:10:16;8.30;;;4.80;;
70132;SDS011;57495;49.922;7.966;2022-09-12T11:12:27;6.93;;;4.60;;
70132;SDS011;57495;49.922;7.966;2022-09-12T11:14:51;7.53;;;4.07;;
70132;SDS011;57495;49.922;7.966;2022-09-12T11:17:05;6.28;;;4.10;;
70132;SDS011;57495;49.922;7.966;2022-09-12T11:19:23;6.65;;;4.47;;
70132;SDS011;57495;49.922;7.966;2022-09-12T11:21:38;7.75;;;5.10;;
70132;SDS011;57495;49.922;7.966;2022-09-12T11:23:55;8.93;;;5.32;;
70132;SDS011;57495;49.922;7.966;2022-09-12T11:26:10;6.13;;;4.70;;
70132;SDS011;57495;49.922;7.966;2022-09-12T11:28:34;5.68;;;3.72;;
70132;SDS011;57495;49.922;7.966;2022-09-12T11:30:46;5.70;;;4.13;;
70132;SDS011;57495;49.922;7.966;2022-09-12T11:33:03;7.35;;;4.78;;
70132;SDS011;57495;49.922;7.966;2022-09-12T11:35:17;6.30;;;4.20;;
70132;SDS011;57495;49.922;7.966;2022-09-12T11:37:27;6.10;;;4.20;;
70132;SDS011;57495;49.922;7.966;2022-09-12T11:39:46;7.90;;;4.20;;
70132;SDS011;57495;49.922;7.966;2022-09-12T11:41:54;6.10;;;4.70;;
70132;SDS011;57495;49.922;7.966;2022-09-12T11:44:00;6.90;;;4.38;;
70132;SDS011;57495;49.922;7.966;2022-09-12T11:46:10;5.47;;;3.95;;
70132;SDS011;57495;49.922;7.966;2022-09-12T11:48:23;6.90;;;3.53;;
70132;SDS011;57495;49.922;7.966;2022-09-12T11:50:33;5.97;;;4.20;;
70132;SDS011;57495;49.922;7.966;2022-09-12T11:52:36;6.00;;;3.75;;
70132;SDS011;57495;49.922;7.966;2022-09-12T11:54:40;7.25;;;3.80;;
70132;SDS011;57495;49.922;7.966;2022-09-12T11:56:45;5.82;;;3.60;;
70132;SDS011;57495;49.922;7.966;2022-09-12T11:58:48;6.87;;;3.53;;
70132;SDS011;57495;49.922;7.966;2022-09-12T12:00:55;5.93;;;4.03;;
70132;SDS011;57495;49.922;7.966;2022-09-12T12:03:00;5.97;;;3.70;;
70132;SDS011;57495;49.922;7.966;2022-09-12T12:05:14;6.43;;;4.05;;
70132;SDS011;57495;49.922;7.966;2022-09-12T12:07:20;6.28;;;4.10;;
70132;SDS011;57495;49.922;7.966;2022-09-12T12:09:21;5.70;;;3.80;;
70132;SDS011;57495;49.922;7.966;2022-09-12T12:11:25;5.03;;;3.90;;
70132;SDS011;57495;49.922;7.966;2022-09-12T12:13:30;5.90;;;3.10;;
70132;SDS011;57495;49.922;7.966;2022-09-12T12:15:34;5.30;;;3.95;;
70132;SDS011;57495;49.922;7.966;2022-09-12T12:17:36;5.88;;;3.88;;
70132;SDS011;57495;49.922;7.966;2022-09-12T12:19:38;6.35;;;4.00;;
70132;SDS011;57495;49.922;7.966;2022-09-12T12:21:41;7.73;;;3.17;;
70132;SDS011;57495;49.922;7.966;2022-09-12T12:24:00;5.88;;;3.80;;
70132;SDS011;57495;49.922;7.966;2022-09-12T12:26:38;5.30;;;3.28;;
70132;SDS011;57495;49.922;7.966;2022-09-12T12:28:57;5.55;;;3.80;;
70132;SDS011;57495;49.922;7.966;2022-09-12T12:31:00;4.97;;;3.20;;
70132;SDS011;57495;49.922;7.966;2022-09-12T12:33:06;6.53;;;3.30;;